sensor_id;sensor_type;location;lat;lon;timestamp;temperature;humidity
48998;DHT22;34807;51.456;7.244;2023-04-24T00:00:54;12.50;93.80
48998;DHT22;34807;51.456;7.244;2023-04-24T00:03:24;12.50;94.00
48998;DHT22;34807;51.456;7.244;2023-04-24T00:05:51;12.50;94.00
48998;DHT22;34807;51.456;7.244;2023-04-24T00:08:17;12.50;93.60
48998;DHT22;34807;51.456;7.244;2023-04-24T00:10:43;12.40;93.90
48998;DHT22;34807;51.456;7.244;2023-04-24T00:13:08;12.40;94.30
48998;DHT22;34807;51.456;7.244;2023-04-24T00:15:34;12.40;94.00
48998;DHT22;34807;51.456;7.244;2023-04-24T00:17:59;12.40;94.00
48998;DHT22;34807;51.456;7.244;2023-04-24T00:20:26;12.40;94.00
48998;DHT22;34807;51.456;7.244;2023-04-24T00:22:53;12.30;93.90
48998;DHT22;34807;51.456;7.244;2023-04-24T00:25:19;12.30;94.10
48998;DHT22;34807;51.456;7.244;2023-04-24T00:27:47;12.30;93.90
48998;DHT22;34807;51.456;7.244;2023-04-24T00:30:13;12.30;94.20
48998;DHT22;34807;51.456;7.244;2023-04-24T00:32:38;12.30;94.20
48998;DHT22;34807;51.456;7.244;2023-04-24T00:35:04;12.30;94.00
48998;DHT22;34807;51.456;7.244;2023-04-24T00:37:31;12.20;94.10
48998;DHT22;34807;51.456;7.244;2023-04-24T00:39:56;12.20;94.10
48998;DHT22;34807;51.456;7.244;2023-04-24T00:42:22;12.20;94.30
48998;DHT22;34807;51.456;7.244;2023-04-24T00:44:47;12.10;94.10
48998;DHT22;34807;51.456;7.244;2023-04-24T00:47:13;12.10;94.00
48998;DHT22;34807;51.456;7.244;2023-04-24T00:49:39;12.10;94.00
48998;DHT22;34807;51.456;7.244;2023-04-24T00:52:05;12.10;94.10
48998;DHT22;34807;51.456;7.244;2023-04-24T00:54:34;12.00;94.00
48998;DHT22;34807;51.456;7.244;2023-04-24T00:57:00;12.00;94.10
48998;DHT22;34807;51.456;7.244;2023-04-24T00:59:26;12.00;94.10
48998;DHT22;34807;51.456;7.244;2023-04-24T01:01:52;12.00;94.10
48998;DHT22;34807;51.456;7.244;2023-04-24T01:04:18;12.00;94.10
48998;DHT22;34807;51.456;7.244;2023-04-24T01:06:43;11.90;93.90
48998;DHT22;34807;51.456;7.244;2023-04-24T01:09:10;11.90;94.10
48998;DHT22;34807;51.456;7.244;2023-04-24T01:11:36;11.90;94.10
48998;DHT22;34807;51.456;7.244;2023-04-24T01:14:02;11.90;94.20
48998;DHT22;34807;51.456;7.244;2023-04-24T01:16:28;11.90;94.20
48998;DHT22;34807;51.456;7.244;2023-04-24T01:18:53;11.90;94.20
48998;DHT22;34807;51.456;7.244;2023-04-24T01:21:19;11.80;94.10
48998;DHT22;34807;51.456;7.244;2023-04-24T01:23:45;11.80;94.10
48998;DHT22;34807;51.456;7.244;2023-04-24T01:26:12;11.80;94.10
48998;DHT22;34807;51.456;7.244;2023-04-24T01:28:38;11.80;94.00
48998;DHT22;34807;51.456;7.244;2023-04-24T01:31:03;11.80;94.10
48998;DHT22;34807;51.456;7.244;2023-04-24T01:33:29;11.80;94.10
48998;DHT22;34807;51.456;7.244;2023-04-24T01:35:54;11.80;94.10
48998;DHT22;34807;51.456;7.244;2023-04-24T01:38:20;11.80;94.10
48998;DHT22;34807;51.456;7.244;2023-04-24T01:40:46;11.80;94.10
48998;DHT22;34807;51.456;7.244;2023-04-24T01:43:12;11.80;94.00
48998;DHT22;34807;51.456;7.244;2023-04-24T01:45:37;11.80;93.90
48998;DHT22;34807;51.456;7.244;2023-04-24T01:48:03;11.80;94.10
48998;DHT22;34807;51.456;7.244;2023-04-24T01:50:28;11.80;93.80
48998;DHT22;34807;51.456;7.244;2023-04-24T01:52:54;11.70;94.00
48998;DHT22;34807;51.456;7.244;2023-04-24T01:55:19;11.70;94.10
48998;DHT22;34807;51.456;7.244;2023-04-24T01:57:45;11.70;94.10
48998;DHT22;34807;51.456;7.244;2023-04-24T02:00:11;11.70;94.20
48998;DHT22;34807;51.456;7.244;2023-04-24T02:02:37;11.70;94.10
48998;DHT22;34807;51.456;7.244;2023-04-24T02:05:05;11.60;94.20
48998;DHT22;34807;51.456;7.244;2023-04-24T02:07:31;11.70;94.10
48998;DHT22;34807;51.456;7.244;2023-04-24T02:09:58;11.60;94.10
48998;DHT22;34807;51.456;7.244;2023-04-24T02:12:23;11.60;94.10
48998;DHT22;34807;51.456;7.244;2023-04-24T02:14:49;11.60;94.10
48998;DHT22;34807;51.456;7.244;2023-04-24T02:17:14;11.60;94.10
48998;DHT22;34807;51.456;7.244;2023-04-24T02:19:41;11.60;93.80
48998;DHT22;34807;51.456;7.244;2023-04-24T02:22:06;11.50;94.00
48998;DHT22;34807;51.456;7.244;2023-04-24T02:24:32;11.50;94.10
48998;DHT22;34807;51.456;7.244;2023-04-24T02:26:57;11.50;93.90
48998;DHT22;34807;51.456;7.244;2023-04-24T02:29:23;11.40;94.10
48998;DHT22;34807;51.456;7.244;2023-04-24T02:31:48;11.40;93.80
48998;DHT22;34807;51.456;7.244;2023-04-24T02:34:14;11.40;93.90
48998;DHT22;34807;51.456;7.244;2023-04-24T02:36:40;11.40;94.00
48998;DHT22;34807;51.456;7.244;2023-04-24T02:39:05;11.40;94.00
48998;DHT22;34807;51.456;7.244;2023-04-24T02:41:31;11.40;94.10
48998;DHT22;34807;51.456;7.244;2023-04-24T02:43:58;11.40;94.10
48998;DHT22;34807;51.456;7.244;2023-04-24T02:46:24;11.30;93.80
48998;DHT22;34807;51.456;7.244;2023-04-24T02:48:50;11.30;93.70
48998;DHT22;34807;51.456;7.244;2023-04-24T02:51:15;11.30;94.00
48998;DHT22;34807;51.456;7.244;2023-04-24T02:53:41;11.30;93.50
48998;DHT22;34807;51.456;7.244;2023-04-24T02:56:06;11.20;93.40
48998;DHT22;34807;51.456;7.244;2023-04-24T02:58:32;11.30;93.80
48998;DHT22;34807;51.456;7.244;2023-04-24T03:00:58;11.20;93.80
48998;DHT22;34807;51.456;7.244;2023-04-24T03:03:23;11.20;93.90
48998;DHT22;34807;51.456;7.244;2023-04-24T03:05:49;11.20;93.90
48998;DHT22;34807;51.456;7.244;2023-04-24T03:08:15;11.20;93.50
48998;DHT22;34807;51.456;7.244;2023-04-24T03:10:41;11.20;93.90
48998;DHT22;34807;51.456;7.244;2023-04-24T03:13:06;11.20;94.10
48998;DHT22;34807;51.456;7.244;2023-04-24T03:15:32;11.20;93.60
48998;DHT22;34807;51.456;7.244;2023-04-24T03:17:57;11.20;93.80
48998;DHT22;34807;51.456;7.244;2023-04-24T03:20:23;11.20;94.10
48998;DHT22;34807;51.456;7.244;2023-04-24T03:22:48;11.20;93.80
48998;DHT22;34807;51.456;7.244;2023-04-24T03:25:14;11.20;93.90
48998;DHT22;34807;51.456;7.244;2023-04-24T03:27:39;11.20;93.90
48998;DHT22;34807;51.456;7.244;2023-04-24T03:30:06;11.20;94.00
48998;DHT22;34807;51.456;7.244;2023-04-24T03:32:31;11.20;93.90
48998;DHT22;34807;51.456;7.244;2023-04-24T03:34:57;11.20;94.00
48998;DHT22;34807;51.456;7.244;2023-04-24T03:37:23;11.20;93.60
48998;DHT22;34807;51.456;7.244;2023-04-24T03:39:48;11.20;93.80
48998;DHT22;34807;51.456;7.244;2023-04-24T03:42:14;11.10;93.90
48998;DHT22;34807;51.456;7.244;2023-04-24T03:44:39;11.20;94.00
48998;DHT22;34807;51.456;7.244;2023-04-24T03:47:05;11.10;93.90
48998;DHT22;34807;51.456;7.244;2023-04-24T03:49:30;11.10;93.90
48998;DHT22;34807;51.456;7.244;2023-04-24T03:51:56;11.20;94.00
48998;DHT22;34807;51.456;7.244;2023-04-24T03:54:21;11.10;93.80
48998;DHT22;34807;51.456;7.244;2023-04-24T03:56:46;11.10;93.90
48998;DHT22;34807;51.456;7.244;2023-04-24T03:59:12;11.10;93.80
48998;DHT22;34807;51.456;7.244;2023-04-24T04:01:38;11.10;94.00
48998;DHT22;34807;51.456;7.244;2023-04-24T04:04:05;11.10;94.00
48998;DHT22;34807;51.456;7.244;2023-04-24T04:06:30;11.10;94.00
48998;DHT22;34807;51.456;7.244;2023-04-24T04:08:56;11.10;93.80
48998;DHT22;34807;51.456;7.244;2023-04-24T04:11:22;11.10;93.90
48998;DHT22;34807;51.456;7.244;2023-04-24T04:13:48;11.10;93.90
48998;DHT22;34807;51.456;7.244;2023-04-24T04:16:13;11.10;93.90
48998;DHT22;34807;51.456;7.244;2023-04-24T04:18:39;11.10;94.00
48998;DHT22;34807;51.456;7.244;2023-04-24T04:21:04;11.10;93.90
48998;DHT22;34807;51.456;7.244;2023-04-24T04:23:30;11.10;94.10
48998;DHT22;34807;51.456;7.244;2023-04-24T04:25:57;11.10;94.00
48998;DHT22;34807;51.456;7.244;2023-04-24T04:28:22;11.10;94.00
48998;DHT22;34807;51.456;7.244;2023-04-24T04:30:50;11.10;94.00
48998;DHT22;34807;51.456;7.244;2023-04-24T04:33:22;11.10;93.80
48998;DHT22;34807;51.456;7.244;2023-04-24T04:35:47;11.10;94.00
48998;DHT22;34807;51.456;7.244;2023-04-24T04:38:17;11.10;94.10
48998;DHT22;34807;51.456;7.244;2023-04-24T04:40:43;11.10;94.10
48998;DHT22;34807;51.456;7.244;2023-04-24T04:43:09;11.10;94.00
48998;DHT22;34807;51.456;7.244;2023-04-24T04:45:36;11.00;93.80
48998;DHT22;34807;51.456;7.244;2023-04-24T04:48:02;11.00;94.00
48998;DHT22;34807;51.456;7.244;2023-04-24T04:50:28;11.10;93.90
48998;DHT22;34807;51.456;7.244;2023-04-24T04:52:54;11.00;93.70
48998;DHT22;34807;51.456;7.244;2023-04-24T04:55:19;11.00;93.90
48998;DHT22;34807;51.456;7.244;2023-04-24T04:57:48;11.10;93.90
48998;DHT22;34807;51.456;7.244;2023-04-24T05:00:14;11.00;93.80
48998;DHT22;34807;51.456;7.244;2023-04-24T05:02:39;11.00;93.80
48998;DHT22;34807;51.456;7.244;2023-04-24T05:05:06;11.00;93.80
48998;DHT22;34807;51.456;7.244;2023-04-24T05:07:31;11.00;93.80
48998;DHT22;34807;51.456;7.244;2023-04-24T05:09:57;11.00;93.80
48998;DHT22;34807;51.456;7.244;2023-04-24T05:12:22;11.00;93.90
48998;DHT22;34807;51.456;7.244;2023-04-24T05:14:48;11.00;93.80
48998;DHT22;34807;51.456;7.244;2023-04-24T05:17:13;11.00;93.70
48998;DHT22;34807;51.456;7.244;2023-04-24T05:19:39;11.00;93.80
48998;DHT22;34807;51.456;7.244;2023-04-24T05:22:04;11.00;93.90
48998;DHT22;34807;51.456;7.244;2023-04-24T05:24:32;11.00;93.90
48998;DHT22;34807;51.456;7.244;2023-04-24T05:26:58;11.00;93.80
48998;DHT22;34807;51.456;7.244;2023-04-24T05:29:24;11.00;93.60
48998;DHT22;34807;51.456;7.244;2023-04-24T05:31:49;11.00;93.80
48998;DHT22;34807;51.456;7.244;2023-04-24T05:34:15;11.00;93.80
48998;DHT22;34807;51.456;7.244;2023-04-24T05:36:42;11.00;93.80
48998;DHT22;34807;51.456;7.244;2023-04-24T05:39:08;11.00;93.90
48998;DHT22;34807;51.456;7.244;2023-04-24T05:41:33;10.90;93.70
48998;DHT22;34807;51.456;7.244;2023-04-24T05:43:59;11.00;93.80
48998;DHT22;34807;51.456;7.244;2023-04-24T05:46:25;10.90;93.80
48998;DHT22;34807;51.456;7.244;2023-04-24T05:48:50;11.00;93.80
48998;DHT22;34807;51.456;7.244;2023-04-24T05:51:16;10.90;93.80
48998;DHT22;34807;51.456;7.244;2023-04-24T05:53:41;10.90;93.70
48998;DHT22;34807;51.456;7.244;2023-04-24T05:56:07;10.90;93.80
48998;DHT22;34807;51.456;7.244;2023-04-24T05:58:32;10.90;93.90
48998;DHT22;34807;51.456;7.244;2023-04-24T06:00:58;10.90;93.90
48998;DHT22;34807;51.456;7.244;2023-04-24T06:03:24;10.90;94.00
48998;DHT22;34807;51.456;7.244;2023-04-24T06:05:50;10.90;93.90
48998;DHT22;34807;51.456;7.244;2023-04-24T06:08:16;10.90;93.80
48998;DHT22;34807;51.456;7.244;2023-04-24T06:10:41;10.90;94.10
48998;DHT22;34807;51.456;7.244;2023-04-24T06:13:07;10.90;94.00
48998;DHT22;34807;51.456;7.244;2023-04-24T06:15:33;10.90;93.90
48998;DHT22;34807;51.456;7.244;2023-04-24T06:17:58;10.90;93.90
48998;DHT22;34807;51.456;7.244;2023-04-24T06:20:24;10.90;94.00
48998;DHT22;34807;51.456;7.244;2023-04-24T06:22:50;10.90;94.00
48998;DHT22;34807;51.456;7.244;2023-04-24T06:25:15;10.90;93.90
48998;DHT22;34807;51.456;7.244;2023-04-24T06:27:41;10.90;93.80
48998;DHT22;34807;51.456;7.244;2023-04-24T06:30:07;10.90;94.00
48998;DHT22;34807;51.456;7.244;2023-04-24T06:32:32;10.90;93.90
48998;DHT22;34807;51.456;7.244;2023-04-24T06:34:58;10.90;93.90
48998;DHT22;34807;51.456;7.244;2023-04-24T06:37:23;10.90;93.90
48998;DHT22;34807;51.456;7.244;2023-04-24T06:39:49;10.90;94.00
48998;DHT22;34807;51.456;7.244;2023-04-24T06:42:15;10.90;93.90
48998;DHT22;34807;51.456;7.244;2023-04-24T06:44:40;10.90;93.90
48998;DHT22;34807;51.456;7.244;2023-04-24T06:47:06;10.90;93.80
48998;DHT22;34807;51.456;7.244;2023-04-24T06:49:34;10.90;93.80
48998;DHT22;34807;51.456;7.244;2023-04-24T06:51:59;10.90;93.80
48998;DHT22;34807;51.456;7.244;2023-04-24T06:54:25;10.90;93.90
48998;DHT22;34807;51.456;7.244;2023-04-24T06:56:50;10.90;93.90
48998;DHT22;34807;51.456;7.244;2023-04-24T06:59:17;11.00;93.80
48998;DHT22;34807;51.456;7.244;2023-04-24T07:01:42;11.00;93.80
48998;DHT22;34807;51.456;7.244;2023-04-24T07:04:08;11.00;93.80
48998;DHT22;34807;51.456;7.244;2023-04-24T07:06:33;11.00;93.90
48998;DHT22;34807;51.456;7.244;2023-04-24T07:09:01;11.00;93.90
48998;DHT22;34807;51.456;7.244;2023-04-24T07:11:26;11.00;93.90
48998;DHT22;34807;51.456;7.244;2023-04-24T07:13:54;11.00;94.00
48998;DHT22;34807;51.456;7.244;2023-04-24T07:16:20;11.00;94.00
48998;DHT22;34807;51.456;7.244;2023-04-24T07:18:45;11.10;93.90
48998;DHT22;34807;51.456;7.244;2023-04-24T07:21:11;11.10;93.90
48998;DHT22;34807;51.456;7.244;2023-04-24T07:23:36;11.10;94.00
48998;DHT22;34807;51.456;7.244;2023-04-24T07:26:02;11.10;93.80
48998;DHT22;34807;51.456;7.244;2023-04-24T07:28:28;11.10;93.90
48998;DHT22;34807;51.456;7.244;2023-04-24T07:30:56;11.10;93.90
48998;DHT22;34807;51.456;7.244;2023-04-24T07:33:22;11.20;93.90
48998;DHT22;34807;51.456;7.244;2023-04-24T07:35:48;11.10;93.90
48998;DHT22;34807;51.456;7.244;2023-04-24T07:38:13;11.20;93.90
48998;DHT22;34807;51.456;7.244;2023-04-24T07:40:39;11.10;93.80
48998;DHT22;34807;51.456;7.244;2023-04-24T07:43:05;11.10;93.90
48998;DHT22;34807;51.456;7.244;2023-04-24T07:45:30;11.10;94.00
48998;DHT22;34807;51.456;7.244;2023-04-24T07:47:57;11.10;93.90
48998;DHT22;34807;51.456;7.244;2023-04-24T07:50:22;11.10;94.10
48998;DHT22;34807;51.456;7.244;2023-04-24T07:52:48;11.10;94.00
48998;DHT22;34807;51.456;7.244;2023-04-24T07:55:14;11.20;93.90
48998;DHT22;34807;51.456;7.244;2023-04-24T07:57:39;11.20;93.90
48998;DHT22;34807;51.456;7.244;2023-04-24T08:00:05;11.20;94.20
48998;DHT22;34807;51.456;7.244;2023-04-24T08:02:31;11.20;94.00
48998;DHT22;34807;51.456;7.244;2023-04-24T08:04:56;11.20;93.90
48998;DHT22;34807;51.456;7.244;2023-04-24T08:07:22;11.20;93.90
48998;DHT22;34807;51.456;7.244;2023-04-24T08:09:48;11.20;93.90
48998;DHT22;34807;51.456;7.244;2023-04-24T08:12:14;11.20;93.80
48998;DHT22;34807;51.456;7.244;2023-04-24T08:14:39;11.20;93.80
48998;DHT22;34807;51.456;7.244;2023-04-24T08:17:05;11.20;93.80
48998;DHT22;34807;51.456;7.244;2023-04-24T08:19:30;11.20;93.70
48998;DHT22;34807;51.456;7.244;2023-04-24T08:21:56;11.20;93.80
48998;DHT22;34807;51.456;7.244;2023-04-24T08:24:22;11.20;93.80
48998;DHT22;34807;51.456;7.244;2023-04-24T08:26:48;11.20;94.00
48998;DHT22;34807;51.456;7.244;2023-04-24T08:29:16;11.20;93.70
48998;DHT22;34807;51.456;7.244;2023-04-24T08:31:42;11.20;93.80
48998;DHT22;34807;51.456;7.244;2023-04-24T08:34:08;11.20;93.80
48998;DHT22;34807;51.456;7.244;2023-04-24T08:36:34;11.20;93.70
48998;DHT22;34807;51.456;7.244;2023-04-24T08:38:59;11.20;93.90
48998;DHT22;34807;51.456;7.244;2023-04-24T08:41:25;11.20;93.90
48998;DHT22;34807;51.456;7.244;2023-04-24T08:43:52;11.10;93.70
48998;DHT22;34807;51.456;7.244;2023-04-24T08:46:18;11.10;94.00
48998;DHT22;34807;51.456;7.244;2023-04-24T08:48:44;11.10;93.90
48998;DHT22;34807;51.456;7.244;2023-04-24T08:51:09;11.10;94.00
48998;DHT22;34807;51.456;7.244;2023-04-24T08:53:36;11.10;94.00
48998;DHT22;34807;51.456;7.244;2023-04-24T08:56:01;11.10;94.10
48998;DHT22;34807;51.456;7.244;2023-04-24T08:58:27;11.10;94.00
48998;DHT22;34807;51.456;7.244;2023-04-24T09:00:56;11.10;94.20
48998;DHT22;34807;51.456;7.244;2023-04-24T09:03:22;11.10;94.20
48998;DHT22;34807;51.456;7.244;2023-04-24T09:05:48;11.10;94.10
48998;DHT22;34807;51.456;7.244;2023-04-24T09:08:18;11.10;94.30
48998;DHT22;34807;51.456;7.244;2023-04-24T09:10:44;11.00;94.20
48998;DHT22;34807;51.456;7.244;2023-04-24T09:13:10;11.00;94.20
48998;DHT22;34807;51.456;7.244;2023-04-24T09:15:39;11.00;94.20
48998;DHT22;34807;51.456;7.244;2023-04-24T09:18:05;11.00;94.20
48998;DHT22;34807;51.456;7.244;2023-04-24T09:20:31;11.00;94.20
48998;DHT22;34807;51.456;7.244;2023-04-24T09:22:57;11.10;94.20
48998;DHT22;34807;51.456;7.244;2023-04-24T09:25:23;11.10;94.30
48998;DHT22;34807;51.456;7.244;2023-04-24T09:27:53;11.10;94.30
48998;DHT22;34807;51.456;7.244;2023-04-24T09:30:21;11.10;94.30
48998;DHT22;34807;51.456;7.244;2023-04-24T09:32:46;11.10;94.30
48998;DHT22;34807;51.456;7.244;2023-04-24T09:35:13;11.10;94.20
48998;DHT22;34807;51.456;7.244;2023-04-24T09:37:39;11.10;94.30
48998;DHT22;34807;51.456;7.244;2023-04-24T09:40:07;11.10;94.40
48998;DHT22;34807;51.456;7.244;2023-04-24T09:42:33;11.10;94.40
48998;DHT22;34807;51.456;7.244;2023-04-24T09:44:58;11.10;94.60
48998;DHT22;34807;51.456;7.244;2023-04-24T09:47:24;11.10;94.50
48998;DHT22;34807;51.456;7.244;2023-04-24T09:49:49;11.10;94.50
48998;DHT22;34807;51.456;7.244;2023-04-24T09:52:15;11.10;94.60
48998;DHT22;34807;51.456;7.244;2023-04-24T09:54:40;11.10;94.70
48998;DHT22;34807;51.456;7.244;2023-04-24T09:57:09;11.00;94.70
48998;DHT22;34807;51.456;7.244;2023-04-24T09:59:35;11.00;94.60
48998;DHT22;34807;51.456;7.244;2023-04-24T10:02:00;11.00;94.50
48998;DHT22;34807;51.456;7.244;2023-04-24T10:04:26;11.00;94.80
48998;DHT22;34807;51.456;7.244;2023-04-24T10:06:52;11.00;94.70
48998;DHT22;34807;51.456;7.244;2023-04-24T10:09:19;11.00;94.70
48998;DHT22;34807;51.456;7.244;2023-04-24T10:11:46;11.00;94.70
48998;DHT22;34807;51.456;7.244;2023-04-24T10:14:12;11.00;94.80
48998;DHT22;34807;51.456;7.244;2023-04-24T10:16:39;11.00;94.70
48998;DHT22;34807;51.456;7.244;2023-04-24T10:19:05;10.90;94.70
48998;DHT22;34807;51.456;7.244;2023-04-24T10:21:31;10.90;94.60
48998;DHT22;34807;51.456;7.244;2023-04-24T10:23:57;10.90;94.70
48998;DHT22;34807;51.456;7.244;2023-04-24T10:26:23;10.90;94.70
48998;DHT22;34807;51.456;7.244;2023-04-24T10:28:49;10.90;94.80
48998;DHT22;34807;51.456;7.244;2023-04-24T10:31:16;10.90;94.80
48998;DHT22;34807;51.456;7.244;2023-04-24T10:33:43;10.90;94.80
48998;DHT22;34807;51.456;7.244;2023-04-24T10:36:11;10.90;94.80
48998;DHT22;34807;51.456;7.244;2023-04-24T10:38:38;10.90;94.80
48998;DHT22;34807;51.456;7.244;2023-04-24T10:41:11;11.00;94.90
48998;DHT22;34807;51.456;7.244;2023-04-24T10:43:48;11.00;94.80
48998;DHT22;34807;51.456;7.244;2023-04-24T10:46:16;11.00;94.80
48998;DHT22;34807;51.456;7.244;2023-04-24T10:48:44;10.90;94.80
48998;DHT22;34807;51.456;7.244;2023-04-24T10:51:17;11.00;94.80
48998;DHT22;34807;51.456;7.244;2023-04-24T10:53:42;11.00;95.00
48998;DHT22;34807;51.456;7.244;2023-04-24T10:56:08;11.00;94.90
48998;DHT22;34807;51.456;7.244;2023-04-24T10:58:42;10.90;94.70
48998;DHT22;34807;51.456;7.244;2023-04-24T11:01:31;11.00;94.80
48998;DHT22;34807;51.456;7.244;2023-04-24T11:03:56;11.00;94.70
48998;DHT22;34807;51.456;7.244;2023-04-24T11:06:32;11.00;94.70
48998;DHT22;34807;51.456;7.244;2023-04-24T11:09:04;11.00;94.80
48998;DHT22;34807;51.456;7.244;2023-04-24T11:11:31;11.00;94.80
48998;DHT22;34807;51.456;7.244;2023-04-24T11:21:59;11.10;94.80
48998;DHT22;34807;51.456;7.244;2023-04-24T11:27:16;11.10;94.90
48998;DHT22;34807;51.456;7.244;2023-04-24T11:47:29;11.30;94.50
48998;DHT22;34807;51.456;7.244;2023-04-24T11:49:55;11.40;94.50
48998;DHT22;34807;51.456;7.244;2023-04-24T11:52:21;11.40;94.50
48998;DHT22;34807;51.456;7.244;2023-04-24T11:54:49;11.40;94.50
48998;DHT22;34807;51.456;7.244;2023-04-24T11:57:21;11.40;94.50
48998;DHT22;34807;51.456;7.244;2023-04-24T11:59:47;11.30;94.50
48998;DHT22;34807;51.456;7.244;2023-04-24T12:02:22;11.30;94.60
48998;DHT22;34807;51.456;7.244;2023-04-24T12:04:47;11.30;94.70
48998;DHT22;34807;51.456;7.244;2023-04-24T12:07:13;11.20;94.50
48998;DHT22;34807;51.456;7.244;2023-04-24T12:12:08;11.20;94.80
48998;DHT22;34807;51.456;7.244;2023-04-24T12:14:41;11.20;94.80
48998;DHT22;34807;51.456;7.244;2023-04-24T12:17:07;11.20;94.70
48998;DHT22;34807;51.456;7.244;2023-04-24T12:19:32;11.30;94.60
48998;DHT22;34807;51.456;7.244;2023-04-24T12:21:59;11.30;94.50
48998;DHT22;34807;51.456;7.244;2023-04-24T12:24:24;11.40;94.40
48998;DHT22;34807;51.456;7.244;2023-04-24T12:26:50;11.60;94.20
48998;DHT22;34807;51.456;7.244;2023-04-24T12:29:19;11.60;94.10
48998;DHT22;34807;51.456;7.244;2023-04-24T12:31:45;11.80;94.00
48998;DHT22;34807;51.456;7.244;2023-04-24T12:34:20;11.80;93.90
48998;DHT22;34807;51.456;7.244;2023-04-24T12:36:46;11.80;93.90
48998;DHT22;34807;51.456;7.244;2023-04-24T12:39:18;11.80;93.80
48998;DHT22;34807;51.456;7.244;2023-04-24T12:41:57;11.80;93.80
48998;DHT22;34807;51.456;7.244;2023-04-24T12:44:29;11.80;93.80
48998;DHT22;34807;51.456;7.244;2023-04-24T12:46:54;11.70;93.90
48998;DHT22;34807;51.456;7.244;2023-04-24T12:49:20;11.70;94.00
48998;DHT22;34807;51.456;7.244;2023-04-24T12:51:45;11.70;94.00
48998;DHT22;34807;51.456;7.244;2023-04-24T12:54:11;11.70;94.00
48998;DHT22;34807;51.456;7.244;2023-04-24T12:56:37;11.60;93.90
48998;DHT22;34807;51.456;7.244;2023-04-24T12:59:04;11.60;94.10
48998;DHT22;34807;51.456;7.244;2023-04-24T13:01:30;11.60;94.20
48998;DHT22;34807;51.456;7.244;2023-04-24T13:03:56;11.60;94.20
48998;DHT22;34807;51.456;7.244;2023-04-24T13:06:21;11.60;94.10
48998;DHT22;34807;51.456;7.244;2023-04-24T13:08:47;11.60;94.10
48998;DHT22;34807;51.456;7.244;2023-04-24T13:11:13;11.70;94.00
48998;DHT22;34807;51.456;7.244;2023-04-24T13:13:39;11.70;93.90
48998;DHT22;34807;51.456;7.244;2023-04-24T13:16:05;11.70;93.70
48998;DHT22;34807;51.456;7.244;2023-04-24T13:18:30;11.80;93.50
48998;DHT22;34807;51.456;7.244;2023-04-24T13:20:56;11.80;93.60
48998;DHT22;34807;51.456;7.244;2023-04-24T13:23:21;11.90;93.50
48998;DHT22;34807;51.456;7.244;2023-04-24T13:25:48;11.90;93.30
48998;DHT22;34807;51.456;7.244;2023-04-24T13:28:13;12.00;93.40
48998;DHT22;34807;51.456;7.244;2023-04-24T13:30:39;12.00;93.30
48998;DHT22;34807;51.456;7.244;2023-04-24T13:33:04;12.00;93.10
48998;DHT22;34807;51.456;7.244;2023-04-24T13:35:30;12.00;93.00
48998;DHT22;34807;51.456;7.244;2023-04-24T13:37:57;12.00;92.90
48998;DHT22;34807;51.456;7.244;2023-04-24T13:40:22;12.10;93.20
48998;DHT22;34807;51.456;7.244;2023-04-24T13:42:48;12.00;93.10
48998;DHT22;34807;51.456;7.244;2023-04-24T13:45:13;12.00;92.90
48998;DHT22;34807;51.456;7.244;2023-04-24T13:47:39;12.00;93.00
48998;DHT22;34807;51.456;7.244;2023-04-24T13:50:07;12.10;93.00
48998;DHT22;34807;51.456;7.244;2023-04-24T13:52:33;12.10;92.80
48998;DHT22;34807;51.456;7.244;2023-04-24T13:54:59;12.10;93.10
48998;DHT22;34807;51.456;7.244;2023-04-24T13:57:24;12.10;93.00
48998;DHT22;34807;51.456;7.244;2023-04-24T13:59:50;12.10;92.80
48998;DHT22;34807;51.456;7.244;2023-04-24T14:02:15;12.10;93.00
48998;DHT22;34807;51.456;7.244;2023-04-24T14:04:41;12.10;92.70
48998;DHT22;34807;51.456;7.244;2023-04-24T14:07:06;12.10;93.00
48998;DHT22;34807;51.456;7.244;2023-04-24T14:09:33;12.10;92.60
48998;DHT22;34807;51.456;7.244;2023-04-24T14:11:58;12.10;93.00
48998;DHT22;34807;51.456;7.244;2023-04-24T14:14:26;12.10;92.50
48998;DHT22;34807;51.456;7.244;2023-04-24T14:16:51;12.20;92.40
48998;DHT22;34807;51.456;7.244;2023-04-24T14:19:17;12.20;92.20
48998;DHT22;34807;51.456;7.244;2023-04-24T14:21:42;12.30;92.40
48998;DHT22;34807;51.456;7.244;2023-04-24T14:24:08;12.40;92.20
48998;DHT22;34807;51.456;7.244;2023-04-24T14:26:34;12.40;92.00
48998;DHT22;34807;51.456;7.244;2023-04-24T14:29:00;12.40;91.90
48998;DHT22;34807;51.456;7.244;2023-04-24T14:31:25;12.50;91.90
48998;DHT22;34807;51.456;7.244;2023-04-24T14:33:51;12.50;91.80
48998;DHT22;34807;51.456;7.244;2023-04-24T14:36:16;12.50;91.80
48998;DHT22;34807;51.456;7.244;2023-04-24T14:38:42;12.50;91.80
48998;DHT22;34807;51.456;7.244;2023-04-24T14:41:07;12.50;91.80
48998;DHT22;34807;51.456;7.244;2023-04-24T14:43:35;12.40;92.00
48998;DHT22;34807;51.456;7.244;2023-04-24T14:46:01;12.40;92.00
48998;DHT22;34807;51.456;7.244;2023-04-24T14:48:26;12.40;92.00
48998;DHT22;34807;51.456;7.244;2023-04-24T14:50:53;12.40;92.00
48998;DHT22;34807;51.456;7.244;2023-04-24T14:53:18;12.40;92.10
48998;DHT22;34807;51.456;7.244;2023-04-24T14:55:44;12.30;92.30
48998;DHT22;34807;51.456;7.244;2023-04-24T14:58:09;12.30;92.50
48998;DHT22;34807;51.456;7.244;2023-04-24T15:00:35;12.20;91.80
48998;DHT22;34807;51.456;7.244;2023-04-24T15:03:01;12.20;92.10
48998;DHT22;34807;51.456;7.244;2023-04-24T15:05:26;12.20;92.30
48998;DHT22;34807;51.456;7.244;2023-04-24T15:07:52;12.10;92.40
48998;DHT22;34807;51.456;7.244;2023-04-24T15:10:17;12.10;92.30
48998;DHT22;34807;51.456;7.244;2023-04-24T15:12:43;12.10;92.40
48998;DHT22;34807;51.456;7.244;2023-04-24T15:15:09;12.10;92.50
48998;DHT22;34807;51.456;7.244;2023-04-24T15:17:34;12.00;92.30
48998;DHT22;34807;51.456;7.244;2023-04-24T15:20:00;12.00;92.50
48998;DHT22;34807;51.456;7.244;2023-04-24T15:22:26;12.00;92.60
48998;DHT22;34807;51.456;7.244;2023-04-24T15:24:51;12.00;92.60
48998;DHT22;34807;51.456;7.244;2023-04-24T15:27:17;12.00;92.50
48998;DHT22;34807;51.456;7.244;2023-04-24T15:29:42;12.00;92.50
48998;DHT22;34807;51.456;7.244;2023-04-24T15:32:08;12.00;92.50
48998;DHT22;34807;51.456;7.244;2023-04-24T15:34:34;12.00;92.40
48998;DHT22;34807;51.456;7.244;2023-04-24T15:37:00;12.10;92.40
48998;DHT22;34807;51.456;7.244;2023-04-24T15:39:25;12.10;92.30
48998;DHT22;34807;51.456;7.244;2023-04-24T15:41:52;12.20;92.20
48998;DHT22;34807;51.456;7.244;2023-04-24T15:44:18;12.30;92.20
48998;DHT22;34807;51.456;7.244;2023-04-24T15:46:44;12.40;92.10
48998;DHT22;34807;51.456;7.244;2023-04-24T15:49:10;12.50;91.90
48998;DHT22;34807;51.456;7.244;2023-04-24T15:51:35;12.70;91.50
48998;DHT22;34807;51.456;7.244;2023-04-24T15:54:01;12.80;91.30